sensor_id;sensor_type;location;lat;lon;timestamp;P1;durP1;ratioP1;P2;durP2;ratioP2
70487;SDS011;57976;48.174;16.370;2023-12-28T00:00:23;19.00;;;9.40;;
70487;SDS011;57976;48.174;16.370;2023-12-28T00:02:28;18.30;;;9.10;;
70487;SDS011;57976;48.174;16.370;2023-12-28T00:04:33;16.10;;;8.90;;
70487;SDS011;57976;48.174;16.370;2023-12-28T00:06:38;17.50;;;9.00;;
70487;SDS011;57976;48.174;16.370;2023-12-28T00:08:42;16.10;;;8.80;;
70487;SDS011;57976;48.174;16.370;2023-12-28T00:10:58;17.70;;;9.10;;
70487;SDS011;57976;48.174;16.370;2023-12-28T00:13:03;17.50;;;8.80;;
70487;SDS011;57976;48.174;16.370;2023-12-28T00:15:08;17.40;;;9.20;;
70487;SDS011;57976;48.174;16.370;2023-12-28T00:17:13;16.70;;;8.80;;
70487;SDS011;57976;48.174;16.370;2023-12-28T00:19:18;19.30;;;8.90;;
70487;SDS011;57976;48.174;16.370;2023-12-28T00:21:23;18.30;;;9.10;;
70487;SDS011;57976;48.174;16.370;2023-12-28T00:23:27;15.60;;;8.50;;
70487;SDS011;57976;48.174;16.370;2023-12-28T00:25:32;17.00;;;8.80;;
70487;SDS011;57976;48.174;16.370;2023-12-28T00:27:39;18.60;;;8.90;;
70487;SDS011;57976;48.174;16.370;2023-12-28T00:29:45;16.30;;;8.80;;
70487;SDS011;57976;48.174;16.370;2023-12-28T00:31:49;17.80;;;8.90;;
70487;SDS011;57976;48.174;16.370;2023-12-28T00:33:57;16.20;;;8.70;;
70487;SDS011;57976;48.174;16.370;2023-12-28T00:36:02;17.00;;;8.80;;
70487;SDS011;57976;48.174;16.370;2023-12-28T00:38:08;16.40;;;8.60;;
70487;SDS011;57976;48.174;16.370;2023-12-28T00:40:13;17.30;;;8.80;;
70487;SDS011;57976;48.174;16.370;2023-12-28T00:42:18;17.30;;;8.70;;
70487;SDS011;57976;48.174;16.370;2023-12-28T00:44:23;18.30;;;9.50;;
70487;SDS011;57976;48.174;16.370;2023-12-28T00:46:31;17.30;;;9.00;;
70487;SDS011;57976;48.174;16.370;2023-12-28T00:48:36;17.90;;;8.60;;
70487;SDS011;57976;48.174;16.370;2023-12-28T00:50:41;17.20;;;9.00;;
70487;SDS011;57976;48.174;16.370;2023-12-28T00:52:45;16.10;;;8.80;;
70487;SDS011;57976;48.174;16.370;2023-12-28T00:54:50;17.30;;;9.20;;
70487;SDS011;57976;48.174;16.370;2023-12-28T00:56:56;18.00;;;9.30;;
70487;SDS011;57976;48.174;16.370;2023-12-28T00:59:01;19.10;;;9.20;;
70487;SDS011;57976;48.174;16.370;2023-12-28T01:01:05;18.10;;;9.10;;
70487;SDS011;57976;48.174;16.370;2023-12-28T01:03:11;18.30;;;9.20;;
70487;SDS011;57976;48.174;16.370;2023-12-28T01:05:16;17.50;;;9.70;;
70487;SDS011;57976;48.174;16.370;2023-12-28T01:07:20;17.20;;;8.90;;
70487;SDS011;57976;48.174;16.370;2023-12-28T01:09:26;18.80;;;9.20;;
70487;SDS011;57976;48.174;16.370;2023-12-28T01:11:31;18.10;;;9.00;;
70487;SDS011;57976;48.174;16.370;2023-12-28T01:13:36;17.50;;;9.40;;
70487;SDS011;57976;48.174;16.370;2023-12-28T01:15:44;18.80;;;9.60;;
70487;SDS011;57976;48.174;16.370;2023-12-28T01:17:49;19.90;;;9.80;;
70487;SDS011;57976;48.174;16.370;2023-12-28T01:19:57;20.00;;;9.90;;
70487;SDS011;57976;48.174;16.370;2023-12-28T01:22:02;18.90;;;9.60;;
70487;SDS011;57976;48.174;16.370;2023-12-28T01:24:07;19.80;;;9.90;;
70487;SDS011;57976;48.174;16.370;2023-12-28T01:26:13;18.70;;;9.50;;
70487;SDS011;57976;48.174;16.370;2023-12-28T01:28:18;20.10;;;9.80;;
70487;SDS011;57976;48.174;16.370;2023-12-28T01:30:23;18.60;;;9.70;;
70487;SDS011;57976;48.174;16.370;2023-12-28T01:32:28;18.70;;;9.70;;
70487;SDS011;57976;48.174;16.370;2023-12-28T01:34:33;19.30;;;9.70;;
70487;SDS011;57976;48.174;16.370;2023-12-28T01:36:38;20.90;;;10.30;;
70487;SDS011;57976;48.174;16.370;2023-12-28T01:38:43;21.50;;;10.60;;
70487;SDS011;57976;48.174;16.370;2023-12-28T01:40:47;20.20;;;10.10;;
70487;SDS011;57976;48.174;16.370;2023-12-28T01:42:58;19.30;;;9.70;;
70487;SDS011;57976;48.174;16.370;2023-12-28T01:45:03;21.50;;;10.40;;
70487;SDS011;57976;48.174;16.370;2023-12-28T01:47:15;18.90;;;10.30;;
70487;SDS011;57976;48.174;16.370;2023-12-28T01:49:20;20.20;;;10.40;;
70487;SDS011;57976;48.174;16.370;2023-12-28T01:51:25;22.30;;;10.70;;
70487;SDS011;57976;48.174;16.370;2023-12-28T01:53:30;22.70;;;11.20;;
70487;SDS011;57976;48.174;16.370;2023-12-28T01:55:35;22.40;;;10.70;;
70487;SDS011;57976;48.174;16.370;2023-12-28T01:57:40;24.00;;;11.00;;
70487;SDS011;57976;48.174;16.370;2023-12-28T01:59:45;21.80;;;11.40;;
70487;SDS011;57976;48.174;16.370;2023-12-28T02:01:50;22.00;;;11.20;;
70487;SDS011;57976;48.174;16.370;2023-12-28T02:03:55;22.00;;;10.90;;
70487;SDS011;57976;48.174;16.370;2023-12-28T02:06:00;22.00;;;10.90;;
70487;SDS011;57976;48.174;16.370;2023-12-28T02:08:06;22.20;;;11.10;;
70487;SDS011;57976;48.174;16.370;2023-12-28T02:10:11;23.60;;;11.60;;
70487;SDS011;57976;48.174;16.370;2023-12-28T02:12:15;21.70;;;10.90;;
70487;SDS011;57976;48.174;16.370;2023-12-28T02:14:20;23.00;;;11.60;;
70487;SDS011;57976;48.174;16.370;2023-12-28T02:16:32;23.80;;;11.10;;
70487;SDS011;57976;48.174;16.370;2023-12-28T02:18:43;21.80;;;11.30;;
70487;SDS011;57976;48.174;16.370;2023-12-28T02:20:51;23.00;;;11.60;;
70487;SDS011;57976;48.174;16.370;2023-12-28T02:22:57;23.30;;;11.60;;
70487;SDS011;57976;48.174;16.370;2023-12-28T02:25:06;20.30;;;11.30;;
70487;SDS011;57976;48.174;16.370;2023-12-28T02:27:11;21.30;;;11.30;;
70487;SDS011;57976;48.174;16.370;2023-12-28T02:29:16;22.10;;;11.60;;
70487;SDS011;57976;48.174;16.370;2023-12-28T02:31:23;22.50;;;11.50;;
70487;SDS011;57976;48.174;16.370;2023-12-28T02:33:33;21.40;;;11.20;;
70487;SDS011;57976;48.174;16.370;2023-12-28T02:35:47;20.70;;;11.30;;
70487;SDS011;57976;48.174;16.370;2023-12-28T02:38:03;24.30;;;11.40;;
70487;SDS011;57976;48.174;16.370;2023-12-28T02:40:11;21.80;;;10.90;;
70487;SDS011;57976;48.174;16.370;2023-12-28T02:42:18;22.10;;;11.40;;
70487;SDS011;57976;48.174;16.370;2023-12-28T02:44:23;21.00;;;10.90;;
70487;SDS011;57976;48.174;16.370;2023-12-28T02:46:28;22.20;;;11.40;;
70487;SDS011;57976;48.174;16.370;2023-12-28T02:48:33;23.30;;;11.50;;
70487;SDS011;57976;48.174;16.370;2023-12-28T02:50:39;22.10;;;11.50;;
70487;SDS011;57976;48.174;16.370;2023-12-28T02:52:44;22.10;;;11.30;;
70487;SDS011;57976;48.174;16.370;2023-12-28T02:54:48;22.30;;;11.00;;
70487;SDS011;57976;48.174;16.370;2023-12-28T02:56:53;23.20;;;11.30;;
70487;SDS011;57976;48.174;16.370;2023-12-28T02:58:58;21.10;;;10.90;;
70487;SDS011;57976;48.174;16.370;2023-12-28T03:01:03;22.40;;;11.40;;
70487;SDS011;57976;48.174;16.370;2023-12-28T03:03:11;23.40;;;11.40;;
70487;SDS011;57976;48.174;16.370;2023-12-28T03:05:16;23.90;;;11.80;;
70487;SDS011;57976;48.174;16.370;2023-12-28T03:07:27;23.40;;;11.20;;
70487;SDS011;57976;48.174;16.370;2023-12-28T03:09:32;23.10;;;11.70;;
70487;SDS011;57976;48.174;16.370;2023-12-28T03:11:37;23.10;;;11.60;;
70487;SDS011;57976;48.174;16.370;2023-12-28T03:13:42;22.20;;;11.00;;
70487;SDS011;57976;48.174;16.370;2023-12-28T03:15:46;23.90;;;11.30;;
70487;SDS011;57976;48.174;16.370;2023-12-28T03:17:51;23.10;;;11.80;;
70487;SDS011;57976;48.174;16.370;2023-12-28T03:19:56;22.60;;;11.60;;
70487;SDS011;57976;48.174;16.370;2023-12-28T03:22:01;23.40;;;12.00;;
70487;SDS011;57976;48.174;16.370;2023-12-28T03:24:06;25.00;;;12.20;;
70487;SDS011;57976;48.174;16.370;2023-12-28T03:26:14;24.90;;;11.80;;
70487;SDS011;57976;48.174;16.370;2023-12-28T03:28:18;23.70;;;12.40;;
70487;SDS011;57976;48.174;16.370;2023-12-28T03:30:26;22.70;;;11.80;;
70487;SDS011;57976;48.174;16.370;2023-12-28T03:32:31;22.60;;;11.90;;
70487;SDS011;57976;48.174;16.370;2023-12-28T03:34:39;21.20;;;11.20;;
70487;SDS011;57976;48.174;16.370;2023-12-28T03:36:43;23.30;;;12.00;;
70487;SDS011;57976;48.174;16.370;2023-12-28T03:38:48;23.20;;;11.60;;
70487;SDS011;57976;48.174;16.370;2023-12-28T03:40:53;21.70;;;11.30;;
70487;SDS011;57976;48.174;16.370;2023-12-28T03:42:58;23.10;;;12.10;;
70487;SDS011;57976;48.174;16.370;2023-12-28T03:45:03;24.00;;;11.90;;
70487;SDS011;57976;48.174;16.370;2023-12-28T03:47:09;21.80;;;11.80;;
70487;SDS011;57976;48.174;16.370;2023-12-28T03:49:13;21.70;;;11.30;;
70487;SDS011;57976;48.174;16.370;2023-12-28T03:51:20;23.00;;;11.90;;
70487;SDS011;57976;48.174;16.370;2023-12-28T03:53:24;23.70;;;11.70;;
70487;SDS011;57976;48.174;16.370;2023-12-28T03:55:29;23.70;;;12.00;;
70487;SDS011;57976;48.174;16.370;2023-12-28T03:57:34;23.50;;;11.60;;
70487;SDS011;57976;48.174;16.370;2023-12-28T03:59:38;25.80;;;11.60;;
70487;SDS011;57976;48.174;16.370;2023-12-28T04:01:44;23.70;;;11.70;;
70487;SDS011;57976;48.174;16.370;2023-12-28T04:03:49;23.70;;;12.50;;
70487;SDS011;57976;48.174;16.370;2023-12-28T04:05:55;27.00;;;12.70;;
70487;SDS011;57976;48.174;16.370;2023-12-28T04:08:00;26.30;;;12.70;;
70487;SDS011;57976;48.174;16.370;2023-12-28T04:10:06;23.80;;;11.60;;
70487;SDS011;57976;48.174;16.370;2023-12-28T04:12:12;27.30;;;12.00;;
70487;SDS011;57976;48.174;16.370;2023-12-28T04:14:20;22.60;;;10.90;;
70487;SDS011;57976;48.174;16.370;2023-12-28T04:16:25;24.30;;;11.90;;
70487;SDS011;57976;48.174;16.370;2023-12-28T04:18:29;26.10;;;12.30;;
70487;SDS011;57976;48.174;16.370;2023-12-28T04:20:35;24.50;;;11.90;;
70487;SDS011;57976;48.174;16.370;2023-12-28T04:22:39;23.40;;;11.90;;
70487;SDS011;57976;48.174;16.370;2023-12-28T04:24:44;23.90;;;12.20;;
70487;SDS011;57976;48.174;16.370;2023-12-28T04:26:49;24.60;;;12.20;;
70487;SDS011;57976;48.174;16.370;2023-12-28T04:28:54;24.90;;;11.80;;
70487;SDS011;57976;48.174;16.370;2023-12-28T04:30:59;23.80;;;11.90;;
70487;SDS011;57976;48.174;16.370;2023-12-28T04:33:07;24.10;;;12.10;;
70487;SDS011;57976;48.174;16.370;2023-12-28T04:35:11;27.40;;;12.50;;
70487;SDS011;57976;48.174;16.370;2023-12-28T04:37:16;26.10;;;12.60;;
70487;SDS011;57976;48.174;16.370;2023-12-28T04:39:22;25.90;;;12.30;;
70487;SDS011;57976;48.174;16.370;2023-12-28T04:41:27;26.40;;;11.90;;
70487;SDS011;57976;48.174;16.370;2023-12-28T04:43:31;23.80;;;11.40;;
70487;SDS011;57976;48.174;16.370;2023-12-28T04:45:37;25.20;;;11.90;;
70487;SDS011;57976;48.174;16.370;2023-12-28T04:47:45;26.80;;;12.70;;
70487;SDS011;57976;48.174;16.370;2023-12-28T04:49:52;27.50;;;12.90;;
70487;SDS011;57976;48.174;16.370;2023-12-28T04:51:59;31.10;;;13.80;;
70487;SDS011;57976;48.174;16.370;2023-12-28T04:54:04;27.00;;;13.90;;
70487;SDS011;57976;48.174;16.370;2023-12-28T04:56:09;26.90;;;12.40;;
70487;SDS011;57976;48.174;16.370;2023-12-28T04:58:14;28.10;;;12.50;;
70487;SDS011;57976;48.174;16.370;2023-12-28T05:00:19;26.00;;;12.20;;
70487;SDS011;57976;48.174;16.370;2023-12-28T05:02:24;25.80;;;12.20;;
70487;SDS011;57976;48.174;16.370;2023-12-28T05:04:29;27.60;;;12.40;;
70487;SDS011;57976;48.174;16.370;2023-12-28T05:06:34;24.10;;;12.00;;
70487;SDS011;57976;48.174;16.370;2023-12-28T05:08:39;27.80;;;13.20;;
70487;SDS011;57976;48.174;16.370;2023-12-28T05:10:44;28.00;;;13.50;;
70487;SDS011;57976;48.174;16.370;2023-12-28T05:12:49;25.90;;;12.60;;
70487;SDS011;57976;48.174;16.370;2023-12-28T05:15:04;25.60;;;12.30;;
70487;SDS011;57976;48.174;16.370;2023-12-28T05:17:10;30.60;;;13.40;;
70487;SDS011;57976;48.174;16.370;2023-12-28T05:19:14;27.50;;;13.40;;
70487;SDS011;57976;48.174;16.370;2023-12-28T05:21:19;29.90;;;13.70;;
70487;SDS011;57976;48.174;16.370;2023-12-28T05:23:24;28.60;;;13.10;;
70487;SDS011;57976;48.174;16.370;2023-12-28T05:25:29;27.00;;;12.60;;
70487;SDS011;57976;48.174;16.370;2023-12-28T05:27:33;27.40;;;12.90;;
70487;SDS011;57976;48.174;16.370;2023-12-28T05:29:38;29.00;;;13.80;;
70487;SDS011;57976;48.174;16.370;2023-12-28T05:31:43;26.10;;;14.40;;
70487;SDS011;57976;48.174;16.370;2023-12-28T05:33:48;28.50;;;12.90;;
70487;SDS011;57976;48.174;16.370;2023-12-28T05:35:53;29.70;;;14.30;;
70487;SDS011;57976;48.174;16.370;2023-12-28T05:37:57;25.90;;;12.60;;
70487;SDS011;57976;48.174;16.370;2023-12-28T05:40:03;29.00;;;13.60;;
70487;SDS011;57976;48.174;16.370;2023-12-28T05:42:09;28.40;;;13.10;;
70487;SDS011;57976;48.174;16.370;2023-12-28T05:44:13;28.70;;;12.80;;
70487;SDS011;57976;48.174;16.370;2023-12-28T05:46:18;30.70;;;12.50;;
70487;SDS011;57976;48.174;16.370;2023-12-28T05:48:23;31.60;;;14.60;;
70487;SDS011;57976;48.174;16.370;2023-12-28T05:50:28;30.90;;;14.10;;
70487;SDS011;57976;48.174;16.370;2023-12-28T05:52:33;31.40;;;13.80;;
70487;SDS011;57976;48.174;16.370;2023-12-28T05:54:37;29.00;;;12.80;;
70487;SDS011;57976;48.174;16.370;2023-12-28T05:56:45;30.00;;;13.10;;
70487;SDS011;57976;48.174;16.370;2023-12-28T05:58:53;30.70;;;13.50;;
70487;SDS011;57976;48.174;16.370;2023-12-28T06:00:58;33.10;;;13.90;;
70487;SDS011;57976;48.174;16.370;2023-12-28T06:03:04;35.00;;;14.90;;
70487;SDS011;57976;48.174;16.370;2023-12-28T06:05:09;27.60;;;11.90;;
70487;SDS011;57976;48.174;16.370;2023-12-28T06:07:14;28.80;;;12.40;;
70487;SDS011;57976;48.174;16.370;2023-12-28T06:09:19;33.40;;;13.80;;
70487;SDS011;57976;48.174;16.370;2023-12-28T06:11:23;30.70;;;13.60;;
70487;SDS011;57976;48.174;16.370;2023-12-28T06:13:31;30.70;;;13.10;;
70487;SDS011;57976;48.174;16.370;2023-12-28T06:15:36;32.10;;;13.00;;
70487;SDS011;57976;48.174;16.370;2023-12-28T06:17:42;28.90;;;13.10;;
70487;SDS011;57976;48.174;16.370;2023-12-28T06:19:47;30.30;;;12.90;;
70487;SDS011;57976;48.174;16.370;2023-12-28T06:21:51;30.60;;;12.90;;
70487;SDS011;57976;48.174;16.370;2023-12-28T06:23:56;28.70;;;12.70;;
70487;SDS011;57976;48.174;16.370;2023-12-28T06:26:05;31.00;;;13.10;;
70487;SDS011;57976;48.174;16.370;2023-12-28T06:28:11;30.50;;;12.90;;
70487;SDS011;57976;48.174;16.370;2023-12-28T06:30:18;31.10;;;12.80;;
70487;SDS011;57976;48.174;16.370;2023-12-28T06:32:23;29.50;;;12.20;;
70487;SDS011;57976;48.174;16.370;2023-12-28T06:34:30;31.40;;;12.60;;
70487;SDS011;57976;48.174;16.370;2023-12-28T06:36:35;30.00;;;12.40;;
70487;SDS011;57976;48.174;16.370;2023-12-28T06:38:39;32.10;;;12.90;;
70487;SDS011;57976;48.174;16.370;2023-12-28T06:40:44;31.30;;;13.20;;
70487;SDS011;57976;48.174;16.370;2023-12-28T06:42:49;27.90;;;12.30;;
70487;SDS011;57976;48.174;16.370;2023-12-28T06:44:54;28.80;;;12.60;;
70487;SDS011;57976;48.174;16.370;2023-12-28T06:46:58;27.90;;;12.40;;
70487;SDS011;57976;48.174;16.370;2023-12-28T06:49:03;27.10;;;12.40;;
70487;SDS011;57976;48.174;16.370;2023-12-28T06:51:17;26.80;;;12.40;;
70487;SDS011;57976;48.174;16.370;2023-12-28T06:53:22;26.90;;;11.90;;
70487;SDS011;57976;48.174;16.370;2023-12-28T06:55:27;27.70;;;12.70;;
70487;SDS011;57976;48.174;16.370;2023-12-28T06:57:32;26.10;;;11.60;;
70487;SDS011;57976;48.174;16.370;2023-12-28T06:59:37;27.20;;;12.50;;
70487;SDS011;57976;48.174;16.370;2023-12-28T07:01:41;26.40;;;11.60;;
70487;SDS011;57976;48.174;16.370;2023-12-28T07:03:46;30.90;;;12.70;;
70487;SDS011;57976;48.174;16.370;2023-12-28T07:05:51;27.10;;;12.20;;
70487;SDS011;57976;48.174;16.370;2023-12-28T07:07:56;28.80;;;12.40;;
70487;SDS011;57976;48.174;16.370;2023-12-28T07:10:01;28.60;;;11.50;;
70487;SDS011;57976;48.174;16.370;2023-12-28T07:12:07;28.20;;;12.70;;
70487;SDS011;57976;48.174;16.370;2023-12-28T07:14:12;28.70;;;12.70;;
70487;SDS011;57976;48.174;16.370;2023-12-28T07:16:16;31.90;;;13.00;;
70487;SDS011;57976;48.174;16.370;2023-12-28T07:18:24;32.50;;;13.20;;
70487;SDS011;57976;48.174;16.370;2023-12-28T07:20:29;32.70;;;13.40;;
70487;SDS011;57976;48.174;16.370;2023-12-28T07:22:34;30.60;;;13.00;;
70487;SDS011;57976;48.174;16.370;2023-12-28T07:24:39;29.80;;;13.10;;
70487;SDS011;57976;48.174;16.370;2023-12-28T07:26:44;29.20;;;12.30;;
70487;SDS011;57976;48.174;16.370;2023-12-28T07:28:48;29.50;;;12.60;;
70487;SDS011;57976;48.174;16.370;2023-12-28T07:30:53;28.80;;;12.10;;
70487;SDS011;57976;48.174;16.370;2023-12-28T07:32:58;30.00;;;12.50;;
70487;SDS011;57976;48.174;16.370;2023-12-28T07:35:03;31.90;;;13.30;;
70487;SDS011;57976;48.174;16.370;2023-12-28T07:37:08;29.20;;;12.80;;
70487;SDS011;57976;48.174;16.370;2023-12-28T07:39:13;26.30;;;11.10;;
70487;SDS011;57976;48.174;16.370;2023-12-28T07:41:18;28.00;;;12.00;;
70487;SDS011;57976;48.174;16.370;2023-12-28T07:43:22;31.90;;;13.30;;
70487;SDS011;57976;48.174;16.370;2023-12-28T07:45:27;28.10;;;11.60;;
70487;SDS011;57976;48.174;16.370;2023-12-28T07:47:36;27.10;;;11.90;;
70487;SDS011;57976;48.174;16.370;2023-12-28T07:49:44;26.10;;;10.90;;
70487;SDS011;57976;48.174;16.370;2023-12-28T07:51:49;27.10;;;11.20;;
70487;SDS011;57976;48.174;16.370;2023-12-28T07:53:54;29.10;;;11.90;;
70487;SDS011;57976;48.174;16.370;2023-12-28T07:56:02;29.70;;;12.00;;
70487;SDS011;57976;48.174;16.370;2023-12-28T07:58:09;26.30;;;11.00;;
70487;SDS011;57976;48.174;16.370;2023-12-28T08:00:14;26.30;;;10.40;;
70487;SDS011;57976;48.174;16.370;2023-12-28T08:02:20;26.30;;;10.90;;
70487;SDS011;57976;48.174;16.370;2023-12-28T08:04:24;26.70;;;11.20;;
70487;SDS011;57976;48.174;16.370;2023-12-28T08:06:29;24.20;;;10.40;;
70487;SDS011;57976;48.174;16.370;2023-12-28T08:08:34;25.70;;;10.60;;
70487;SDS011;57976;48.174;16.370;2023-12-28T08:10:39;25.60;;;10.50;;
70487;SDS011;57976;48.174;16.370;2023-12-28T08:12:43;22.80;;;10.00;;
70487;SDS011;57976;48.174;16.370;2023-12-28T08:14:48;25.40;;;10.60;;
70487;SDS011;57976;48.174;16.370;2023-12-28T08:16:53;26.50;;;11.10;;
70487;SDS011;57976;48.174;16.370;2023-12-28T08:18:58;25.60;;;10.90;;
70487;SDS011;57976;48.174;16.370;2023-12-28T08:21:03;27.60;;;11.50;;
70487;SDS011;57976;48.174;16.370;2023-12-28T08:23:07;24.40;;;9.90;;
70487;SDS011;57976;48.174;16.370;2023-12-28T08:25:20;26.30;;;10.70;;
70487;SDS011;57976;48.174;16.370;2023-12-28T08:27:25;22.80;;;10.30;;
70487;SDS011;57976;48.174;16.370;2023-12-28T08:29:30;22.90;;;10.30;;
70487;SDS011;57976;48.174;16.370;2023-12-28T08:31:35;23.00;;;9.60;;
70487;SDS011;57976;48.174;16.370;2023-12-28T08:33:40;23.20;;;9.70;;
70487;SDS011;57976;48.174;16.370;2023-12-28T08:35:46;26.00;;;10.20;;
70487;SDS011;57976;48.174;16.370;2023-12-28T08:37:50;23.40;;;9.70;;
70487;SDS011;57976;48.174;16.370;2023-12-28T08:39:55;24.10;;;10.30;;
70487;SDS011;57976;48.174;16.370;2023-12-28T08:42:00;25.40;;;9.80;;
70487;SDS011;57976;48.174;16.370;2023-12-28T08:44:05;24.70;;;9.60;;
70487;SDS011;57976;48.174;16.370;2023-12-28T08:46:09;27.00;;;11.00;;
70487;SDS011;57976;48.174;16.370;2023-12-28T08:48:14;27.70;;;9.90;;
70487;SDS011;57976;48.174;16.370;2023-12-28T08:50:19;22.20;;;9.90;;
70487;SDS011;57976;48.174;16.370;2023-12-28T08:52:23;25.00;;;10.30;;
70487;SDS011;57976;48.174;16.370;2023-12-28T08:54:28;23.60;;;10.20;;
70487;SDS011;57976;48.174;16.370;2023-12-28T08:56:33;24.00;;;9.80;;
70487;SDS011;57976;48.174;16.370;2023-12-28T08:58:38;25.20;;;10.40;;
70487;SDS011;57976;48.174;16.370;2023-12-28T09:00:43;23.60;;;10.10;;
70487;SDS011;57976;48.174;16.370;2023-12-28T09:02:48;24.80;;;10.00;;
70487;SDS011;57976;48.174;16.370;2023-12-28T09:04:53;26.30;;;10.60;;
70487;SDS011;57976;48.174;16.370;2023-12-28T09:06:58;25.20;;;10.60;;
70487;SDS011;57976;48.174;16.370;2023-12-28T09:09:02;24.70;;;10.30;;
70487;SDS011;57976;48.174;16.370;2023-12-28T09:11:07;26.90;;;10.40;;
70487;SDS011;57976;48.174;16.370;2023-12-28T09:13:15;27.30;;;10.90;;
70487;SDS011;57976;48.174;16.370;2023-12-28T09:15:21;25.80;;;10.10;;
70487;SDS011;57976;48.174;16.370;2023-12-28T09:17:26;24.80;;;10.40;;
70487;SDS011;57976;48.174;16.370;2023-12-28T09:19:31;23.90;;;9.70;;
70487;SDS011;57976;48.174;16.370;2023-12-28T09:21:36;24.60;;;10.40;;
70487;SDS011;57976;48.174;16.370;2023-12-28T09:23:40;23.30;;;10.00;;
70487;SDS011;57976;48.174;16.370;2023-12-28T09:25:45;24.80;;;10.50;;
70487;SDS011;57976;48.174;16.370;2023-12-28T09:27:50;23.80;;;10.40;;
70487;SDS011;57976;48.174;16.370;2023-12-28T09:29:54;22.20;;;10.00;;
70487;SDS011;57976;48.174;16.370;2023-12-28T09:32:02;22.30;;;10.00;;
70487;SDS011;57976;48.174;16.370;2023-12-28T09:34:08;22.60;;;10.10;;
70487;SDS011;57976;48.174;16.370;2023-12-28T09:36:13;21.10;;;9.70;;
70487;SDS011;57976;48.174;16.370;2023-12-28T09:38:18;23.00;;;9.70;;
70487;SDS011;57976;48.174;16.370;2023-12-28T09:40:23;22.00;;;9.90;;
70487;SDS011;57976;48.174;16.370;2023-12-28T09:42:29;19.90;;;8.50;;
70487;SDS011;57976;48.174;16.370;2023-12-28T09:44:41;21.90;;;9.00;;
70487;SDS011;57976;48.174;16.370;2023-12-28T09:46:46;22.10;;;9.30;;
70487;SDS011;57976;48.174;16.370;2023-12-28T09:48:51;21.30;;;9.60;;
70487;SDS011;57976;48.174;16.370;2023-12-28T09:50:56;21.80;;;9.70;;
70487;SDS011;57976;48.174;16.370;2023-12-28T09:53:01;23.80;;;9.90;;
70487;SDS011;57976;48.174;16.370;2023-12-28T09:55:06;20.80;;;9.30;;
70487;SDS011;57976;48.174;16.370;2023-12-28T09:57:11;21.90;;;9.80;;
70487;SDS011;57976;48.174;16.370;2023-12-28T09:59:16;22.60;;;9.90;;
70487;SDS011;57976;48.174;16.370;2023-12-28T10:01:22;19.80;;;8.40;;
70487;SDS011;57976;48.174;16.370;2023-12-28T10:03:30;22.20;;;10.10;;
70487;SDS011;57976;48.174;16.370;2023-12-28T10:05:35;21.70;;;9.40;;
70487;SDS011;57976;48.174;16.370;2023-12-28T10:07:41;24.40;;;9.60;;
70487;SDS011;57976;48.174;16.370;2023-12-28T10:09:54;24.20;;;10.20;;
70487;SDS011;57976;48.174;16.370;2023-12-28T10:11:59;24.90;;;10.00;;
70487;SDS011;57976;48.174;16.370;2023-12-28T10:14:05;24.90;;;10.20;;
70487;SDS011;57976;48.174;16.370;2023-12-28T10:16:10;23.40;;;10.30;;
70487;SDS011;57976;48.174;16.370;2023-12-28T10:18:16;24.00;;;10.30;;
70487;SDS011;57976;48.174;16.370;2023-12-28T10:20:27;24.20;;;10.10;;
70487;SDS011;57976;48.174;16.370;2023-12-28T10:22:32;22.60;;;10.00;;
70487;SDS011;57976;48.174;16.370;2023-12-28T10:24:40;23.20;;;9.70;;
70487;SDS011;57976;48.174;16.370;2023-12-28T10:26:46;21.20;;;9.20;;
70487;SDS011;57976;48.174;16.370;2023-12-28T10:28:51;21.80;;;9.60;;
70487;SDS011;57976;48.174;16.370;2023-12-28T10:31:04;22.90;;;10.20;;
70487;SDS011;57976;48.174;16.370;2023-12-28T10:33:09;24.50;;;9.90;;
70487;SDS011;57976;48.174;16.370;2023-12-28T10:35:17;23.60;;;10.10;;
70487;SDS011;57976;48.174;16.370;2023-12-28T10:37:26;22.10;;;9.90;;
70487;SDS011;57976;48.174;16.370;2023-12-28T10:39:34;20.90;;;9.60;;
70487;SDS011;57976;48.174;16.370;2023-12-28T10:41:39;25.30;;;11.30;;
70487;SDS011;57976;48.174;16.370;2023-12-28T10:43:47;23.60;;;10.30;;
70487;SDS011;57976;48.174;16.370;2023-12-28T10:46:01;22.20;;;9.60;;
70487;SDS011;57976;48.174;16.370;2023-12-28T10:48:07;22.40;;;10.10;;
70487;SDS011;57976;48.174;16.370;2023-12-28T10:50:14;23.10;;;10.40;;
70487;SDS011;57976;48.174;16.370;2023-12-28T10:52:20;24.80;;;10.90;;
70487;SDS011;57976;48.174;16.370;2023-12-28T10:54:37;25.00;;;11.10;;
70487;SDS011;57976;48.174;16.370;2023-12-28T10:56:50;23.20;;;10.00;;
70487;SDS011;57976;48.174;16.370;2023-12-28T10:59:03;21.50;;;10.30;;
70487;SDS011;57976;48.174;16.370;2023-12-28T11:01:22;25.30;;;11.00;;
70487;SDS011;57976;48.174;16.370;2023-12-28T11:03:30;20.20;;;9.20;;
70487;SDS011;57976;48.174;16.370;2023-12-28T11:05:42;23.20;;;9.50;;
70487;SDS011;57976;48.174;16.370;2023-12-28T11:07:48;25.10;;;10.90;;
70487;SDS011;57976;48.174;16.370;2023-12-28T11:09:56;22.00;;;9.60;;
70487;SDS011;57976;48.174;16.370;2023-12-28T11:12:03;23.80;;;10.20;;
70487;SDS011;57976;48.174;16.370;2023-12-28T11:14:09;23.20;;;9.40;;
70487;SDS011;57976;48.174;16.370;2023-12-28T11:16:15;22.70;;;9.50;;
70487;SDS011;57976;48.174;16.370;2023-12-28T11:18:21;22.70;;;9.80;;
70487;SDS011;57976;48.174;16.370;2023-12-28T11:20:28;21.00;;;9.60;;
70487;SDS011;57976;48.174;16.370;2023-12-28T11:22:34;21.60;;;9.30;;
70487;SDS011;57976;48.174;16.370;2023-12-28T11:24:40;20.50;;;9.60;;
70487;SDS011;57976;48.174;16.370;2023-12-28T11:26:44;22.00;;;9.80;;
70487;SDS011;57976;48.174;16.370;2023-12-28T11:29:01;22.20;;;9.80;;
70487;SDS011;57976;48.174;16.370;2023-12-28T11:31:09;23.50;;;9.60;;
70487;SDS011;57976;48.174;16.370;2023-12-28T11:33:16;22.20;;;10.00;;
70487;SDS011;57976;48.174;16.370;2023-12-28T11:35:21;20.00;;;9.10;;
70487;SDS011;57976;48.174;16.370;2023-12-28T11:37:27;22.00;;;10.10;;
70487;SDS011;57976;48.174;16.370;2023-12-28T11:39:35;20.80;;;9.60;;
70487;SDS011;57976;48.174;16.370;2023-12-28T11:41:41;22.10;;;9.40;;
70487;SDS011;57976;48.174;16.370;2023-12-28T11:43:51;22.90;;;9.80;;
70487;SDS011;57976;48.174;16.370;2023-12-28T11:45:56;21.50;;;9.50;;
70487;SDS011;57976;48.174;16.370;2023-12-28T11:48:03;21.80;;;10.00;;
70487;SDS011;57976;48.174;16.370;2023-12-28T11:50:09;21.00;;;9.30;;
70487;SDS011;57976;48.174;16.370;2023-12-28T11:52:23;24.00;;;10.20;;
70487;SDS011;57976;48.174;16.370;2023-12-28T11:54:29;24.30;;;10.50;;
70487;SDS011;57976;48.174;16.370;2023-12-28T11:56:37;20.60;;;9.60;;
70487;SDS011;57976;48.174;16.370;2023-12-28T11:58:41;20.00;;;9.50;;
70487;SDS011;57976;48.174;16.370;2023-12-28T12:00:46;23.00;;;9.90;;
70487;SDS011;57976;48.174;16.370;2023-12-28T12:02:52;19.40;;;9.30;;
70487;SDS011;57976;48.174;16.370;2023-12-28T12:05:00;20.70;;;9.00;;
70487;SDS011;57976;48.174;16.370;2023-12-28T12:07:05;21.10;;;9.00;;
70487;SDS011;57976;48.174;16.370;2023-12-28T12:09:12;22.90;;;9.70;;